KRNC/RNC METAR and TAF weather

Enter ICAO airport designator
Station Type Date Time Source
KRNC METAR 2020/08/14 01:35 UTC NOAA

KRNC 140135Z AUTO 00000KT 10SM SCT028 BKN041 OVC110 23/22 A2999 RMK A01


Station Type Date Time Source
KRNC Decoded METAR 2020/08/14 01:35 UTC NOAA

Station name not available
Aug 13, 2020 - 09:35 PM EDT / 2020.08.14 0135 UTC
Wind: Calm:0
Visibility: 10 mile(s):0
Sky conditions: overcast
Temperature: 73 F (23 C)
Dew Point: 71 F (22 C)
Relative Humidity: 94%
Pressure (altimeter): 29.99 in. Hg (1015 hPa)
ob: KRNC 140135Z AUTO 00000KT 10SM SCT028 BKN041 OVC110 23/22 A2999 RMK A01
cycle: 1

Station Type Date Time Source
KRNC TAF 2009/08/31 19:45 UTC NOAA

METAR KRNC 311945Z AUTO 35008KT 10SM CLR 25/12 A3011
RMK AO1 T02500116 $

Example: see airport list